Time;durP1;ratioP1;P1;durP2;ratioP2;P2;SDS_P1;SDS_P2;PMS_P1;PMS_P2;Temp;Humidity;BMP_temperature;BMP_pressure;BME280_temperature;BME280_humidity;BME280_pressure;Samples;Min_cycle;Max_cycle;Signal;HPM_P1;HPM_P2
2023/12/05 00:00:53;;;;;;;9.50;7.70;;;;;;;;;;2610524;54;20416;-71
2023/12/05 00:03:19;;;;;;;7.97;6.80;;;;;;;;;;2609748;54;20413;-69
2023/12/05 00:05:46;;;;;;;8.97;6.80;;;;;;;;;;2612107;54;21019;-83
2023/12/05 00:08:12;;;;;;;7.30;6.27;;;;;;;;;;2613125;47;20432;-84
2023/12/05 00:10:38;;;;;;;8.30;6.80;;;;;;;;;;2612597;54;20484;-85
2023/12/05 00:13:07;;;;;;;8.60;7.67;;;;;;;;;;2613907;54;20417;-84
2023/12/05 00:15:33;;;;;;;9.60;8.60;;;;;;;;;;2614350;54;20398;-80
2023/12/05 00:17:59;;;;;;;10.10;7.77;;;;;;;;;;2614632;54;20410;-79
2023/12/05 00:20:25;;;;;;;8.90;7.80;;;;;;;;;;2614004;54;20391;-78
2023/12/05 00:22:51;;;;;;;9.93;7.40;;;;;;;;;;2610817;54;20396;-80
2023/12/05 00:25:18;;;;;;;8.70;7.60;;;;;;;;;;2614877;46;20447;-81
2023/12/05 00:27:44;;;;;;;7.70;6.97;;;;;;;;;;2613850;54;20419;-78
2023/12/05 00:30:11;;;;;;;8.97;7.57;;;;;;;;;;2611424;54;20423;-77
2023/12/05 00:32:37;;;;;;;10.33;7.80;;;;;;;;;;2611693;46;20702;-79
2023/12/05 00:35:03;;;;;;;8.03;6.83;;;;;;;;;;2611631;54;20436;-80
2023/12/05 00:37:29;;;;;;;10.33;7.77;;;;;;;;;;2613509;54;20434;-80
2023/12/05 00:39:55;;;;;;;8.50;7.00;;;;;;;;;;2613765;47;20447;-80
2023/12/05 00:42:21;;;;;;;7.97;6.67;;;;;;;;;;2614409;54;20438;-79
2023/12/05 00:44:47;;;;;;;8.70;7.80;;;;;;;;;;2614638;47;20464;-79
2023/12/05 00:47:13;;;;;;;9.50;6.27;;;;;;;;;;2615092;31;20879;-80
2023/12/05 00:49:39;;;;;;;10.07;6.77;;;;;;;;;;2613756;39;20729;-79
2023/12/05 00:52:06;;;;;;;9.70;7.37;;;;;;;;;;2613996;54;20417;-78
2023/12/05 00:54:32;;;;;;;7.80;6.97;;;;;;;;;;2612104;54;20972;-79
2023/12/05 00:56:59;;;;;;;8.17;7.27;;;;;;;;;;2612426;39;20889;-80
2023/12/05 00:59:25;;;;;;;7.37;6.63;;;;;;;;;;2613318;54;20435;-79
2023/12/05 01:01:51;;;;;;;7.23;6.50;;;;;;;;;;2611874;54;20436;-79
2023/12/05 01:04:17;;;;;;;8.10;6.57;;;;;;;;;;2614069;54;20638;-78
2023/12/05 01:06:44;;;;;;;9.30;6.73;;;;;;;;;;2613990;54;20999;-79
2023/12/05 01:09:10;;;;;;;8.10;6.17;;;;;;;;;;2611648;46;20923;-80
2023/12/05 01:11:36;;;;;;;8.80;6.30;;;;;;;;;;2611914;54;20402;-79
2023/12/05 01:14:03;;;;;;;8.10;6.63;;;;;;;;;;2610979;54;20430;-77
2023/12/05 01:16:29;;;;;;;7.87;6.50;;;;;;;;;;2608973;54;20430;-72
2023/12/05 01:18:55;;;;;;;9.90;8.00;;;;;;;;;;2610373;54;20428;-71
2023/12/05 01:21:21;;;;;;;8.33;7.20;;;;;;;;;;2609970;54;20417;-71
2023/12/05 01:23:47;;;;;;;7.47;6.77;;;;;;;;;;2609665;54;20403;-72
2023/12/05 01:26:13;;;;;;;10.97;7.60;;;;;;;;;;2611293;47;20563;-77
2023/12/05 01:28:39;;;;;;;9.20;7.03;;;;;;;;;;2610262;54;20403;-78
2023/12/05 01:31:05;;;;;;;10.07;7.23;;;;;;;;;;2610049;54;20921;-80
2023/12/05 01:33:32;;;;;;;8.53;7.17;;;;;;;;;;2612371;54;20499;-79
2023/12/05 01:35:58;;;;;;;8.97;7.67;;;;;;;;;;2613498;46;21044;-81
2023/12/05 01:38:24;;;;;;;9.90;8.30;;;;;;;;;;2614085;39;20793;-81
2023/12/05 01:40:50;;;;;;;8.10;7.10;;;;;;;;;;2613112;47;20470;-82
2023/12/05 01:43:16;;;;;;;9.33;7.43;;;;;;;;;;2612455;54;20405;-82
2023/12/05 01:45:42;;;;;;;9.27;7.53;;;;;;;;;;2612757;54;20422;-80
2023/12/05 01:48:10;;;;;;;8.43;7.27;;;;;;;;;;2612691;46;20412;-80
2023/12/05 01:50:36;;;;;;;8.43;7.00;;;;;;;;;;2610947;54;20405;-78
2023/12/05 01:53:04;;;;;;;7.03;6.30;;;;;;;;;;2611488;46;20712;-78
2023/12/05 01:55:31;;;;;;;7.67;6.53;;;;;;;;;;2611407;39;20816;-76
2023/12/05 01:57:57;;;;;;;7.80;6.80;;;;;;;;;;2610091;54;20459;-78
2023/12/05 02:00:24;;;;;;;8.30;6.90;;;;;;;;;;2610884;54;20420;-79
2023/12/05 02:02:50;;;;;;;9.30;7.47;;;;;;;;;;2611231;54;20435;-80
2023/12/05 02:05:16;;;;;;;7.73;6.80;;;;;;;;;;2611598;47;20428;-77
2023/12/05 02:07:42;;;;;;;7.57;6.80;;;;;;;;;;2611367;47;20468;-78
2023/12/05 02:10:10;;;;;;;6.93;6.30;;;;;;;;;;2613012;54;20440;-79
2023/12/05 02:12:40;;;;;;;10.63;7.57;;;;;;;;;;2614702;54;20420;-78
2023/12/05 02:15:07;;;;;;;9.77;8.10;;;;;;;;;;2611392;54;20409;-79
2023/12/05 02:17:33;;;;;;;8.33;7.17;;;;;;;;;;2611727;54;21108;-80
2023/12/05 02:20:12;;;;;;;9.27;7.20;;;;;;;;;;2611759;54;21048;-79
2023/12/05 02:22:38;;;;;;;7.73;6.83;;;;;;;;;;2612139;54;20491;-78
2023/12/05 02:25:17;;;;;;;8.07;6.53;;;;;;;;;;2612156;39;20981;-70
2023/12/05 02:27:45;;;;;;;10.27;7.00;;;;;;;;;;2611888;54;20527;-71
2023/12/05 02:30:14;;;;;;;12.33;6.23;;;;;;;;;;2610426;39;20799;-70
2023/12/05 02:32:40;;;;;;;7.93;6.80;;;;;;;;;;2609403;54;20416;-72
2023/12/05 02:35:07;;;;;;;8.07;6.90;;;;;;;;;;2609874;47;21000;-75
2023/12/05 02:37:38;;;;;;;7.83;6.53;;;;;;;;;;2609742;54;20431;-75
2023/12/05 02:40:06;;;;;;;8.07;7.20;;;;;;;;;;2609666;54;20596;-75
2023/12/05 02:42:33;;;;;;;8.20;6.90;;;;;;;;;;2610504;31;20906;-75
2023/12/05 02:45:01;;;;;;;8.33;7.53;;;;;;;;;;2609757;54;21006;-74
2023/12/05 02:47:29;;;;;;;7.90;7.10;;;;;;;;;;2610118;54;20443;-74
2023/12/05 02:49:56;;;;;;;7.53;6.50;;;;;;;;;;2610011;54;20510;-74
2023/12/05 02:52:22;;;;;;;9.27;7.20;;;;;;;;;;2612145;54;20432;-75
2023/12/05 02:54:49;;;;;;;6.83;6.13;;;;;;;;;;2611570;54;20432;-75
2023/12/05 02:57:15;;;;;;;9.23;7.60;;;;;;;;;;2611988;54;20421;-75
2023/12/05 02:59:41;;;;;;;8.90;8.00;;;;;;;;;;2611015;54;20425;-75
2023/12/05 03:02:07;;;;;;;6.80;6.10;;;;;;;;;;2610382;39;21172;-75
2023/12/05 03:04:33;;;;;;;8.27;7.00;;;;;;;;;;2609632;54;20449;-75
2023/12/05 03:06:59;;;;;;;7.80;7.00;;;;;;;;;;2610014;54;20432;-75
2023/12/05 03:09:25;;;;;;;7.63;6.90;;;;;;;;;;2609383;54;20460;-75
2023/12/05 03:11:51;;;;;;;7.33;6.53;;;;;;;;;;2610727;39;20944;-75
2023/12/05 03:14:17;;;;;;;8.17;7.17;;;;;;;;;;2612001;46;20479;-75
2023/12/05 03:16:43;;;;;;;7.20;5.90;;;;;;;;;;2611325;54;20426;-75
2023/12/05 03:19:09;;;;;;;7.60;6.50;;;;;;;;;;2612282;47;21038;-76
2023/12/05 03:21:35;;;;;;;7.50;6.20;;;;;;;;;;2612844;54;20891;-75
2023/12/05 03:24:01;;;;;;;7.50;6.33;;;;;;;;;;2612161;54;20396;-75
2023/12/05 03:26:27;;;;;;;8.53;7.50;;;;;;;;;;2613349;39;21255;-75
2023/12/05 03:28:53;;;;;;;8.10;6.30;;;;;;;;;;2609301;54;20415;-76
2023/12/05 03:31:19;;;;;;;8.30;6.63;;;;;;;;;;2611992;54;20549;-76
2023/12/05 03:33:46;;;;;;;8.10;6.80;;;;;;;;;;2612771;53;20432;-74
2023/12/05 03:36:12;;;;;;;8.30;6.40;;;;;;;;;;2610637;54;20452;-84
2023/12/05 03:38:39;;;;;;;9.00;6.30;;;;;;;;;;2611927;54;20425;-84
2023/12/05 03:41:05;;;;;;;6.83;6.13;;;;;;;;;;2611526;54;20998;-84
2023/12/05 03:43:31;;;;;;;6.93;6.07;;;;;;;;;;2611700;54;20960;-82
2023/12/05 03:45:57;;;;;;;7.47;6.53;;;;;;;;;;2611633;54;20416;-83
2023/12/05 03:48:23;;;;;;;7.83;6.73;;;;;;;;;;2612334;54;20420;-84
2023/12/05 03:50:49;;;;;;;8.80;7.07;;;;;;;;;;2612546;54;20420;-85
2023/12/05 03:53:15;;;;;;;6.20;5.53;;;;;;;;;;2612885;54;20408;-81
2023/12/05 03:55:41;;;;;;;7.10;5.87;;;;;;;;;;2611735;47;20430;-84
2023/12/05 03:58:07;;;;;;;5.97;5.37;;;;;;;;;;2613004;54;20443;-84
2023/12/05 04:00:33;;;;;;;8.07;5.40;;;;;;;;;;2612352;54;20424;-81
2023/12/05 04:02:59;;;;;;;6.70;5.40;;;;;;;;;;2611054;39;20792;-81
2023/12/05 04:05:26;;;;;;;5.77;5.17;;;;;;;;;;2611781;54;20475;-81
2023/12/05 04:07:52;;;;;;;8.00;6.60;;;;;;;;;;2610804;54;20492;-82
2023/12/05 04:10:18;;;;;;;6.43;5.53;;;;;;;;;;2612779;39;20690;-84
2023/12/05 04:12:44;;;;;;;8.73;6.20;;;;;;;;;;2612799;54;20468;-83
2023/12/05 04:15:10;;;;;;;7.47;6.50;;;;;;;;;;2613442;39;20812;-83
2023/12/05 04:17:36;;;;;;;7.40;6.20;;;;;;;;;;2612386;47;20449;-82
2023/12/05 04:20:04;;;;;;;8.30;7.33;;;;;;;;;;2612935;54;20524;-81
2023/12/05 04:22:30;;;;;;;7.10;5.70;;;;;;;;;;2612893;54;20432;-86
2023/12/05 04:24:56;;;;;;;9.13;7.00;;;;;;;;;;2611624;49;20411;-84
2023/12/05 04:27:22;;;;;;;9.43;6.47;;;;;;;;;;2612074;47;21144;-85
2023/12/05 04:29:50;;;;;;;8.20;7.07;;;;;;;;;;2611050;54;20473;-85
2023/12/05 04:32:16;;;;;;;16.33;7.43;;;;;;;;;;2613561;54;20393;-85
2023/12/05 04:34:44;;;;;;;10.33;8.20;;;;;;;;;;2614406;54;20427;-84
2023/12/05 04:37:11;;;;;;;9.20;8.17;;;;;;;;;;2614644;54;20909;-83
2023/12/05 04:39:37;;;;;;;8.57;7.10;;;;;;;;;;2612553;47;20476;-84
2023/12/05 04:42:04;;;;;;;9.40;8.10;;;;;;;;;;2611871;54;21058;-79
2023/12/05 04:44:30;;;;;;;9.73;8.03;;;;;;;;;;2611068;47;21013;-76
2023/12/05 04:46:59;;;;;;;9.93;7.40;;;;;;;;;;2610055;47;21034;-76
2023/12/05 04:49:26;;;;;;;9.60;7.07;;;;;;;;;;2611388;54;20413;-77
2023/12/05 04:51:53;;;;;;;8.43;6.93;;;;;;;;;;2613818;39;20662;-75
2023/12/05 04:54:19;;;;;;;9.57;8.43;;;;;;;;;;2613565;54;20816;-73
2023/12/05 04:56:45;;;;;;;9.50;7.80;;;;;;;;;;2613512;54;20411;-76
2023/12/05 04:59:11;;;;;;;7.00;6.30;;;;;;;;;;2610676;54;20403;-75
2023/12/05 05:01:37;;;;;;;8.93;6.03;;;;;;;;;;2610077;46;20472;-75
2023/12/05 05:04:03;;;;;;;11.50;5.97;;;;;;;;;;2610846;54;20544;-75
2023/12/05 05:06:29;;;;;;;8.77;6.93;;;;;;;;;;2614007;54;20441;-83
2023/12/05 05:08:55;;;;;;;8.10;6.27;;;;;;;;;;2612706;54;20397;-82
2023/12/05 05:11:23;;;;;;;10.43;7.77;;;;;;;;;;2612103;54;20417;-82
2023/12/05 05:13:49;;;;;;;8.10;6.00;;;;;;;;;;2612691;54;20417;-82
2023/12/05 05:16:15;;;;;;;8.47;4.93;;;;;;;;;;2612932;54;21017;-81
2023/12/05 05:18:41;;;;;;;7.90;6.93;;;;;;;;;;2610480;54;20506;-80
2023/12/05 05:21:07;;;;;;;9.87;7.30;;;;;;;;;;2611247;54;21052;-81
2023/12/05 05:23:33;;;;;;;8.73;7.50;;;;;;;;;;2610834;54;20403;-78
2023/12/05 05:26:00;;;;;;;8.83;6.33;;;;;;;;;;2611738;47;20421;-78
2023/12/05 05:28:26;;;;;;;5.53;4.40;;;;;;;;;;2611386;47;20449;-79
2023/12/05 05:30:54;;;;;;;8.17;6.20;;;;;;;;;;2612224;54;20430;-81
2023/12/05 05:33:23;;;;;;;7.03;5.30;;;;;;;;;;2611979;54;20433;-79
2023/12/05 05:35:49;;;;;;;7.50;5.20;;;;;;;;;;2611866;54;20434;-81
2023/12/05 05:38:15;;;;;;;8.43;6.50;;;;;;;;;;2613313;54;20922;-83
2023/12/05 05:40:42;;;;;;;8.00;6.23;;;;;;;;;;2613611;54;20511;-77
2023/12/05 05:43:08;;;;;;;6.27;5.33;;;;;;;;;;2615074;54;20407;-76
2023/12/05 05:45:34;;;;;;;9.90;6.27;;;;;;;;;;2612986;54;20450;-81
2023/12/05 05:48:00;;;;;;;9.60;6.10;;;;;;;;;;2613182;54;20392;-82
2023/12/05 05:50:26;;;;;;;7.57;5.10;;;;;;;;;;2612807;54;22945;-85
2023/12/05 05:52:52;;;;;;;7.20;5.70;;;;;;;;;;2612835;54;20430;-82
2023/12/05 05:55:18;;;;;;;6.47;5.10;;;;;;;;;;2613737;54;20462;-84
2023/12/05 05:57:45;;;;;;;8.23;5.97;;;;;;;;;;2612731;54;20429;-84
2023/12/05 06:00:11;;;;;;;7.20;5.37;;;;;;;;;;2612573;47;20423;-82
2023/12/05 06:02:38;;;;;;;7.17;4.97;;;;;;;;;;2611427;47;20426;-84
2023/12/05 06:05:04;;;;;;;7.20;5.67;;;;;;;;;;2611363;54;20422;-70
2023/12/05 06:07:30;;;;;;;9.37;6.53;;;;;;;;;;2609704;47;20940;-71
2023/12/05 06:09:59;;;;;;;8.10;6.97;;;;;;;;;;2613193;54;20424;-70
2023/12/05 06:12:26;;;;;;;6.77;5.57;;;;;;;;;;2611487;39;20519;-70
2023/12/05 06:14:52;;;;;;;7.20;5.93;;;;;;;;;;2610046;47;20431;-75
2023/12/05 06:17:18;;;;;;;7.90;4.67;;;;;;;;;;2613040;54;20412;-73
2023/12/05 06:19:45;;;;;;;8.63;5.87;;;;;;;;;;2613534;54;20409;-76
2023/12/05 06:22:12;;;;;;;5.67;4.80;;;;;;;;;;2610577;54;20469;-77
2023/12/05 06:24:38;;;;;;;4.70;4.00;;;;;;;;;;2613804;31;20886;-75
2023/12/05 06:27:04;;;;;;;7.23;5.43;;;;;;;;;;2611070;54;20384;-77
2023/12/05 06:29:30;;;;;;;4.97;4.13;;;;;;;;;;2609081;54;20393;-76
2023/12/05 06:31:56;;;;;;;5.37;4.63;;;;;;;;;;2610588;54;20419;-76
2023/12/05 06:34:24;;;;;;;7.17;5.23;;;;;;;;;;2611562;47;20555;-75
2023/12/05 06:36:51;;;;;;;5.50;4.73;;;;;;;;;;2609844;54;20404;-75
2023/12/05 06:39:17;;;;;;;5.60;4.60;;;;;;;;;;2610153;39;20918;-76
2023/12/05 06:41:42;;;;;;;4.80;4.20;;;;;;;;;;2610802;54;20408;-81
2023/12/05 06:44:08;;;;;;;6.63;5.07;;;;;;;;;;2610227;54;20437;-81
2023/12/05 06:46:34;;;;;;;6.87;4.20;;;;;;;;;;2610807;39;20818;-76
2023/12/05 06:49:02;;;;;;;6.90;5.20;;;;;;;;;;2610756;54;20441;-79
2023/12/05 06:51:28;;;;;;;8.60;5.53;;;;;;;;;;2610820;54;21005;-78
2023/12/05 06:53:55;;;;;;;4.43;4.03;;;;;;;;;;2610489;54;20428;-76
2023/12/05 06:56:21;;;;;;;5.77;4.50;;;;;;;;;;2609790;54;20518;-76
2023/12/05 06:58:47;;;;;;;5.17;4.63;;;;;;;;;;2609296;54;20522;-77
2023/12/05 07:01:13;;;;;;;5.80;4.50;;;;;;;;;;2609637;54;20413;-78
2023/12/05 07:03:39;;;;;;;7.20;5.60;;;;;;;;;;2608392;54;20423;-79
2023/12/05 07:06:05;;;;;;;6.37;5.07;;;;;;;;;;2609222;39;20901;-78
2023/12/05 07:08:32;;;;;;;6.73;4.97;;;;;;;;;;2609255;47;20428;-77
2023/12/05 07:10:58;;;;;;;7.97;5.33;;;;;;;;;;2612118;54;20451;-78
2023/12/05 07:13:24;;;;;;;6.60;5.20;;;;;;;;;;2613773;54;20765;-77
2023/12/05 07:15:50;;;;;;;5.77;5.17;;;;;;;;;;2613053;54;20453;-78
2023/12/05 07:18:16;;;;;;;7.33;5.63;;;;;;;;;;2612327;54;20434;-76
2023/12/05 07:20:42;;;;;;;8.03;5.70;;;;;;;;;;2613392;54;20461;-77
2023/12/05 07:23:08;;;;;;;8.00;5.77;;;;;;;;;;2612310;54;20429;-75
2023/12/05 07:25:34;;;;;;;7.57;5.37;;;;;;;;;;2613391;31;21063;-75
2023/12/05 07:28:00;;;;;;;7.27;5.60;;;;;;;;;;2613147;54;20433;-75
2023/12/05 07:30:26;;;;;;;8.30;6.40;;;;;;;;;;2614014;54;20772;-75
2023/12/05 07:32:52;;;;;;;5.00;4.30;;;;;;;;;;2611818;47;20436;-75
2023/12/05 07:35:18;;;;;;;15.20;5.93;;;;;;;;;;2612641;54;20431;-77
2023/12/05 07:37:44;;;;;;;7.50;5.70;;;;;;;;;;2612622;54;20579;-75
2023/12/05 07:40:10;;;;;;;9.57;5.97;;;;;;;;;;2611830;54;20530;-75
2023/12/05 07:42:36;;;;;;;7.10;4.90;;;;;;;;;;2613023;39;20839;-77
2023/12/05 07:45:05;;;;;;;8.47;6.30;;;;;;;;;;2613921;54;20393;-83
2023/12/05 07:47:31;;;;;;;6.73;5.10;;;;;;;;;;2613798;39;20414;-83
2023/12/05 07:49:57;;;;;;;8.87;5.70;;;;;;;;;;2613803;39;20693;-83
2023/12/05 07:52:23;;;;;;;6.67;5.30;;;;;;;;;;2613793;54;20426;-82
2023/12/05 07:54:49;;;;;;;10.33;6.60;;;;;;;;;;2613865;39;20895;-84
2023/12/05 07:57:21;;;;;;;10.43;6.70;;;;;;;;;;2613526;47;20462;-82
2023/12/05 07:59:47;;;;;;;9.70;6.77;;;;;;;;;;2613519;54;20416;-82
2023/12/05 08:02:13;;;;;;;8.63;6.17;;;;;;;;;;2612352;54;20545;-83
2023/12/05 08:04:41;;;;;;;7.37;5.73;;;;;;;;;;2614427;54;20417;-84
2023/12/05 08:07:07;;;;;;;8.53;5.50;;;;;;;;;;2615592;54;20432;-83
2023/12/05 08:09:33;;;;;;;10.13;5.67;;;;;;;;;;2613552;47;20537;-81
2023/12/05 08:11:59;;;;;;;9.07;6.10;;;;;;;;;;2614543;54;20524;-82
2023/12/05 08:14:26;;;;;;;8.80;5.80;;;;;;;;;;2613986;54;20433;-81
2023/12/05 08:16:52;;;;;;;6.90;5.20;;;;;;;;;;2614947;54;20441;-82
2023/12/05 08:19:19;;;;;;;7.53;5.10;;;;;;;;;;2615010;39;20830;-81
2023/12/05 08:21:45;;;;;;;8.60;5.20;;;;;;;;;;2613061;54;20424;-80
2023/12/05 08:24:11;;;;;;;6.50;4.60;;;;;;;;;;2614500;54;20455;-81
2023/12/05 08:26:37;;;;;;;6.93;3.60;;;;;;;;;;2613211;54;20421;-76
2023/12/05 08:29:03;;;;;;;5.67;4.30;;;;;;;;;;2613620;39;20797;-75
2023/12/05 08:31:29;;;;;;;5.20;3.03;;;;;;;;;;2614186;47;20949;-76
2023/12/05 08:33:55;;;;;;;6.27;3.97;;;;;;;;;;2613778;39;20828;-75
2023/12/05 08:36:21;;;;;;;8.13;4.47;;;;;;;;;;2613716;54;20601;-74
2023/12/05 08:38:47;;;;;;;5.80;3.77;;;;;;;;;;2613635;54;20430;-74
2023/12/05 08:41:20;;;;;;;6.30;4.20;;;;;;;;;;2613735;54;20444;-76
2023/12/05 08:43:47;;;;;;;5.93;4.10;;;;;;;;;;2612418;39;20813;-76
2023/12/05 08:46:13;;;;;;;5.47;3.90;;;;;;;;;;2613140;54;20482;-75
2023/12/05 08:48:39;;;;;;;4.70;3.87;;;;;;;;;;2613729;54;20431;-74
2023/12/05 08:51:06;;;;;;;4.30;2.90;;;;;;;;;;2612522;39;20848;-75
2023/12/05 08:53:32;;;;;;;5.87;3.70;;;;;;;;;;2613731;54;20422;-75
2023/12/05 08:55:58;;;;;;;4.73;3.93;;;;;;;;;;2613917;54;20425;-76
2023/12/05 08:58:24;;;;;;;4.63;3.30;;;;;;;;;;2613017;54;20525;-76
2023/12/05 09:00:50;;;;;;;4.10;3.33;;;;;;;;;;2613310;54;20414;-77
2023/12/05 09:03:16;;;;;;;4.90;3.10;;;;;;;;;;2613680;54;20790;-77
2023/12/05 09:05:42;;;;;;;5.00;3.43;;;;;;;;;;2612035;54;20546;-76
2023/12/05 09:08:08;;;;;;;4.23;3.60;;;;;;;;;;2613202;54;20432;-76
2023/12/05 09:10:34;;;;;;;5.20;3.80;;;;;;;;;;2613718;46;20405;-76
2023/12/05 09:13:01;;;;;;;1.80;1.57;;;;;;;;;;2614038;54;20429;-75
2023/12/05 09:15:28;;;;;;;4.53;3.10;;;;;;;;;;2613771;54;20959;-76
2023/12/05 09:17:54;;;;;;;4.03;2.73;;;;;;;;;;2614040;54;20386;-77
2023/12/05 09:20:20;;;;;;;2.93;2.67;;;;;;;;;;2613032;39;20896;-77
2023/12/05 09:22:47;;;;;;;4.47;3.17;;;;;;;;;;2613134;54;20406;-76
2023/12/05 09:25:13;;;;;;;3.27;2.40;;;;;;;;;;2613483;31;20936;-76
2023/12/05 09:27:39;;;;;;;4.00;2.90;;;;;;;;;;2613685;54;20421;-76
2023/12/05 09:30:05;;;;;;;2.87;2.33;;;;;;;;;;2613883;54;20418;-76
2023/12/05 09:32:31;;;;;;;3.20;2.60;;;;;;;;;;2614072;54;20494;-77
2023/12/05 09:34:57;;;;;;;3.17;2.50;;;;;;;;;;2613805;54;20409;-72
2023/12/05 09:37:23;;;;;;;3.13;2.50;;;;;;;;;;2612657;39;20874;-73
2023/12/05 09:39:49;;;;;;;4.50;2.70;;;;;;;;;;2612828;47;21025;-72
2023/12/05 09:42:18;;;;;;;3.57;3.00;;;;;;;;;;2612996;54;20887;-71
2023/12/05 09:44:47;;;;;;;3.10;2.57;;;;;;;;;;2613699;31;20979;-71
2023/12/05 09:47:18;;;;;;;2.70;2.50;;;;;;;;;;2613317;54;20505;-70
2023/12/05 09:49:44;;;;;;;3.90;2.30;;;;;;;;;;2613338;54;20501;-72
2023/12/05 09:52:10;;;;;;;4.23;2.80;;;;;;;;;;2612327;54;20433;-70
2023/12/05 09:54:37;;;;;;;3.07;2.60;;;;;;;;;;2613550;54;20410;-72
2023/12/05 09:57:03;;;;;;;2.90;2.43;;;;;;;;;;2612971;54;20407;-73
2023/12/05 09:59:30;;;;;;;3.40;2.33;;;;;;;;;;2612801;54;20422;-70
2023/12/05 10:01:57;;;;;;;6.40;2.57;;;;;;;;;;2612174;54;21073;-71
2023/12/05 10:04:25;;;;;;;2.20;2.00;;;;;;;;;;2613439;39;20841;-70
2023/12/05 10:06:51;;;;;;;3.00;1.70;;;;;;;;;;2616595;54;20525;-86
2023/12/05 10:09:20;;;;;;;2.53;1.70;;;;;;;;;;2616130;54;20446;-85
2023/12/05 10:11:47;;;;;;;2.90;2.60;;;;;;;;;;2615605;39;20597;-86
2023/12/05 10:14:13;;;;;;;2.67;1.90;;;;;;;;;;2617686;47;20466;-88
2023/12/05 10:16:39;;;;;;;3.30;2.13;;;;;;;;;;2616734;54;20423;-85
2023/12/05 10:19:06;;;;;;;6.53;2.23;;;;;;;;;;2616559;54;20415;-86
2023/12/05 10:21:33;;;;;;;2.17;1.93;;;;;;;;;;2616585;54;20547;-85
2023/12/05 10:23:59;;;;;;;2.90;1.67;;;;;;;;;;2616328;54;21010;-86
2023/12/05 10:26:25;;;;;;;2.10;1.77;;;;;;;;;;2617159;47;21269;-85
2023/12/05 10:28:53;;;;;;;3.33;2.13;;;;;;;;;;2616504;54;21050;-86
2023/12/05 10:31:19;;;;;;;6.60;2.20;;;;;;;;;;2617174;39;20881;-86
2023/12/05 10:33:46;;;;;;;2.27;2.07;;;;;;;;;;2617081;54;20509;-85
2023/12/05 10:36:12;;;;;;;2.63;2.30;;;;;;;;;;2617028;47;20472;-87
2023/12/05 10:38:38;;;;;;;3.53;1.90;;;;;;;;;;2615755;47;20422;-86
2023/12/05 10:41:04;;;;;;;2.60;1.60;;;;;;;;;;2616559;54;20450;-86
2023/12/05 10:43:30;;;;;;;2.40;1.90;;;;;;;;;;2615927;54;20500;-87
2023/12/05 10:45:57;;;;;;;2.00;1.87;;;;;;;;;;2617446;54;20967;-87
2023/12/05 10:48:26;;;;;;;2.60;1.93;;;;;;;;;;2615939;54;20438;-87
2023/12/05 10:50:52;;;;;;;2.00;1.80;;;;;;;;;;2616668;39;20870;-85
2023/12/05 10:53:19;;;;;;;2.00;1.67;;;;;;;;;;2615741;54;21022;-85
2023/12/05 10:55:45;;;;;;;1.60;1.30;;;;;;;;;;2616153;47;21039;-85
2023/12/05 10:58:12;;;;;;;2.13;1.40;;;;;;;;;;2615041;54;21073;-84
2023/12/05 11:00:39;;;;;;;2.40;1.70;;;;;;;;;;2616643;47;20522;-88
2023/12/05 11:03:05;;;;;;;2.30;1.43;;;;;;;;;;2615993;54;20441;-85
2023/12/05 11:05:32;;;;;;;2.53;1.73;;;;;;;;;;2616018;54;20490;-85
2023/12/05 11:07:59;;;;;;;2.80;1.80;;;;;;;;;;2616673;39;20782;-86
2023/12/05 11:10:28;;;;;;;2.20;1.60;;;;;;;;;;2615691;47;20426;-87
2023/12/05 11:12:55;;;;;;;1.93;1.67;;;;;;;;;;2615924;54;20842;-85
2023/12/05 11:15:26;;;;;;;3.50;2.17;;;;;;;;;;2614141;54;20910;-81
2023/12/05 11:18:15;;;;;;;2.37;1.77;;;;;;;;;;2612438;39;20836;-80
2023/12/05 11:20:59;;;;;;;2.23;1.47;;;;;;;;;;2613909;47;20458;-79
2023/12/05 11:23:38;;;;;;;2.47;2.27;;;;;;;;;;2613464;54;20446;-77
2023/12/05 11:26:07;;;;;;;1.70;1.50;;;;;;;;;;2613415;54;20541;-80
2023/12/05 11:28:33;;;;;;;2.80;1.60;;;;;;;;;;2613321;54;20430;-78
2023/12/05 11:31:22;;;;;;;2.80;1.50;;;;;;;;;;2614165;39;20766;-79
2023/12/05 11:33:48;;;;;;;1.57;1.47;;;;;;;;;;2613055;54;20939;-78
2023/12/05 11:36:33;;;;;;;1.77;1.33;;;;;;;;;;2613720;54;20429;-78
2023/12/05 11:38:59;;;;;;;1.70;1.50;;;;;;;;;;2613699;54;20501;-79
2023/12/05 11:41:27;;;;;;;2.13;1.50;;;;;;;;;;2613591;54;20454;-79
2023/12/05 11:44:11;;;;;;;1.60;1.27;;;;;;;;;;2614385;54;20477;-81
2023/12/05 11:46:37;;;;;;;1.87;1.20;;;;;;;;;;2614154;47;20521;-80
2023/12/05 11:49:04;;;;;;;3.70;1.40;;;;;;;;;;2614558;54;20438;-79
2023/12/05 11:51:31;;;;;;;2.57;1.60;;;;;;;;;;2614726;54;20441;-80
2023/12/05 11:53:57;;;;;;;2.80;1.83;;;;;;;;;;2614451;54;20420;-79
2023/12/05 11:56:23;;;;;;;1.40;1.03;;;;;;;;;;2612948;54;20467;-73
2023/12/05 11:58:49;;;;;;;4.50;2.03;;;;;;;;;;2613332;54;20437;-73
2023/12/05 12:01:15;;;;;;;2.10;1.60;;;;;;;;;;2613830;54;20509;-73
2023/12/05 12:03:45;;;;;;;4.77;1.70;;;;;;;;;;2613505;39;20768;-74
2023/12/05 12:06:11;;;;;;;1.63;1.00;;;;;;;;;;2613841;54;20981;-72
2023/12/05 12:08:37;;;;;;;2.00;1.77;;;;;;;;;;2613869;54;20444;-73
2023/12/05 12:11:04;;;;;;;1.80;1.40;;;;;;;;;;2614799;54;20428;-75
2023/12/05 12:13:30;;;;;;;1.97;1.30;;;;;;;;;;2615044;54;20440;-75
2023/12/05 12:15:57;;;;;;;1.70;1.20;;;;;;;;;;2618473;54;20418;-75
2023/12/05 12:18:27;;;;;;;1.80;1.37;;;;;;;;;;2616213;47;20420;-73
2023/12/05 12:20:53;;;;;;;2.50;1.93;;;;;;;;;;2613477;54;20437;-73
2023/12/05 12:23:20;;;;;;;3.77;1.50;;;;;;;;;;2613525;54;20428;-73
2023/12/05 12:25:57;;;;;;;2.10;1.77;;;;;;;;;;2613837;47;20445;-74
2023/12/05 12:28:33;;;;;;;3.40;1.73;;;;;;;;;;2610746;54;20413;-75
2023/12/05 12:30:59;;;;;;;2.80;1.80;;;;;;;;;;2614141;39;20803;-72
2023/12/05 12:33:37;;;;;;;2.60;1.47;;;;;;;;;;2613939;54;20401;-73
2023/12/05 12:36:04;;;;;;;1.97;1.20;;;;;;;;;;2612407;54;20412;-73
2023/12/05 12:38:30;;;;;;;1.40;1.30;;;;;;;;;;2613509;54;21134;-74
2023/12/05 12:40:56;;;;;;;1.70;1.30;;;;;;;;;;2613486;54;21216;-75
2023/12/05 12:43:22;;;;;;;2.50;1.57;;;;;;;;;;2614321;39;20909;-75
2023/12/05 12:45:48;;;;;;;1.63;1.23;;;;;;;;;;2613308;47;20468;-74
2023/12/05 12:48:15;;;;;;;1.70;1.20;;;;;;;;;;2612732;47;20454;-74
2023/12/05 12:50:41;;;;;;;1.40;0.97;;;;;;;;;;2613035;47;20444;-73
2023/12/05 12:53:08;;;;;;;1.43;1.03;;;;;;;;;;2613325;54;20452;-75
2023/12/05 12:55:34;;;;;;;1.60;1.20;;;;;;;;;;2613736;54;20966;-76
2023/12/05 12:58:00;;;;;;;2.17;1.77;;;;;;;;;;2612884;39;20797;-73
2023/12/05 13:00:26;;;;;;;1.90;1.40;;;;;;;;;;2614518;31;20831;-73
2023/12/05 13:02:53;;;;;;;1.53;1.30;;;;;;;;;;2612720;54;20438;-74
2023/12/05 13:05:28;;;;;;;2.53;1.53;;;;;;;;;;2612522;39;20959;-71
2023/12/05 13:07:54;;;;;;;1.80;1.57;;;;;;;;;;2611876;54;20419;-71
2023/12/05 13:10:23;;;;;;;2.03;1.63;;;;;;;;;;2612344;54;20437;-73
2023/12/05 13:12:49;;;;;;;2.60;1.80;;;;;;;;;;2611905;54;20424;-70
2023/12/05 13:15:20;;;;;;;2.13;1.70;;;;;;;;;;2613639;54;20553;-71
2023/12/05 13:18:18;;;;;;;5.63;1.90;;;;;;;;;;2612234;54;20497;-71
2023/12/05 13:20:55;;;;;;;3.43;2.17;;;;;;;;;;2611890;54;20438;-71
2023/12/05 13:23:25;;;;;;;2.17;1.90;;;;;;;;;;2614110;31;20906;-71
2023/12/05 13:25:51;;;;;;;4.33;1.70;;;;;;;;;;2613677;47;20416;-72
2023/12/05 13:28:18;;;;;;;2.67;2.13;;;;;;;;;;2613329;39;21030;-71
2023/12/05 13:30:44;;;;;;;2.13;1.50;;;;;;;;;;2612241;47;20446;-70
2023/12/05 13:33:11;;;;;;;3.50;1.90;;;;;;;;;;2612314;47;20440;-70
2023/12/05 13:35:37;;;;;;;2.33;2.10;;;;;;;;;;2612659;54;20417;-79
2023/12/05 13:38:04;;;;;;;1.90;1.70;;;;;;;;;;2613871;54;20429;-79
2023/12/05 13:40:29;;;;;;;2.13;1.93;;;;;;;;;;2613713;54;20463;-80
2023/12/05 13:42:55;;;;;;;4.20;2.37;;;;;;;;;;2613847;54;20433;-80
2023/12/05 13:45:22;;;;;;;2.30;2.10;;;;;;;;;;2614747;31;20934;-79
2023/12/05 13:47:48;;;;;;;2.33;1.93;;;;;;;;;;2613668;54;20433;-78
2023/12/05 13:50:14;;;;;;;1.97;1.80;;;;;;;;;;2613283;54;20449;-79
2023/12/05 13:52:40;;;;;;;3.90;2.97;;;;;;;;;;2610931;54;20430;-80
2023/12/05 13:55:06;;;;;;;2.70;2.47;;;;;;;;;;2611040;47;20497;-79
2023/12/05 13:57:32;;;;;;;3.47;2.53;;;;;;;;;;2610159;47;20454;-79
2023/12/05 13:59:59;;;;;;;5.00;2.73;;;;;;;;;;2610987;54;20510;-79
2023/12/05 14:02:25;;;;;;;3.07;2.73;;;;;;;;;;2610757;54;20434;-79
2023/12/05 14:04:51;;;;;;;2.87;2.67;;;;;;;;;;2609824;54;20532;-80
2023/12/05 14:07:17;;;;;;;4.10;3.60;;;;;;;;;;2611234;39;20740;-80
2023/12/05 14:09:43;;;;;;;7.80;3.03;;;;;;;;;;2610667;54;20975;-78
2023/12/05 14:12:11;;;;;;;4.83;4.33;;;;;;;;;;2610154;54;20460;-79
2023/12/05 14:14:39;;;;;;;3.80;3.30;;;;;;;;;;2610260;47;20437;-80
2023/12/05 14:17:05;;;;;;;3.97;3.57;;;;;;;;;;2610257;54;20978;-78
2023/12/05 14:19:32;;;;;;;5.33;3.47;;;;;;;;;;2610407;54;20434;-77
2023/12/05 14:21:58;;;;;;;3.23;2.93;;;;;;;;;;2610305;54;20402;-78
2023/12/05 14:24:24;;;;;;;5.90;3.60;;;;;;;;;;2614020;54;20997;-80
2023/12/05 14:26:50;;;;;;;4.23;3.83;;;;;;;;;;2612344;54;20434;-77
2023/12/05 14:29:16;;;;;;;6.57;3.50;;;;;;;;;;2610173;54;20439;-78
2023/12/05 14:31:44;;;;;;;6.90;5.60;;;;;;;;;;2610168;54;20500;-79
2023/12/05 14:34:10;;;;;;;8.93;6.10;;;;;;;;;;2610069;54;20421;-77
2023/12/05 14:36:36;;;;;;;9.47;6.87;;;;;;;;;;2610033;54;20428;-76
2023/12/05 14:39:02;;;;;;;9.70;6.53;;;;;;;;;;2609712;54;20436;-79
2023/12/05 14:41:28;;;;;;;9.03;5.83;;;;;;;;;;2610143;54;20471;-78